< < Back
Terminal Aerodrome Forecast


Current Version              Previous Versions:   1  2  3  4  5  6  7  8  9  

Terminal Aerodrome Forecast

668
FTUS44 KBMX 201721
TAFMGM
TAF
KMGM 201721Z 2018/2118 26012G20KT P6SM SCT050
     FM210300 30006KT P6SM SKC
     FM210600 28002KT P6SM SKC
     FM211500 34006KT P6SM SKC=

Latest METAR

916
SAUS80 KWBC 210200 RRA
MTRMGM
METAR KMGM 210153Z 28008KT 10SM CLR 19/11 A2989 RMK AO2 SLP120
T01890106


USA.gov is the U.S. government's official web portal to all federal, state and local government web resources and services.